Time;durP1;ratioP1;P1;durP2;ratioP2;P2;SDS_P1;SDS_P2;PMS_P1;PMS_P2;Temp;Humidity;BMP_temperature;BMP_pressure;BME280_temperature;BME280_humidity;BME280_pressure;Samples;Min_cycle;Max_cycle;Signal;HPM_P1;HPM_P2
2022/03/18 00:00:54;;;;;;;28.38;19.38;;;;;;;;;;5102042;28;20209;-66
2022/03/18 00:03:19;;;;;;;28.08;19.40;;;;;;;;;;5110657;28;20024;-66
2022/03/18 00:05:44;;;;;;;30.17;20.85;;;;;;;;;;5109509;28;20031;-66
2022/03/18 00:08:10;;;;;;;27.45;20.80;;;;;;;;;;5110603;28;20031;-64
2022/03/18 00:10:36;;;;;;;30.75;21.88;;;;;;;;;;5094965;28;20024;-66
2022/03/18 00:13:01;;;;;;;31.83;22.67;;;;;;;;;;5105856;28;20524;-65
2022/03/18 00:15:27;;;;;;;32.65;23.00;;;;;;;;;;5110739;28;20533;-67
2022/03/18 00:17:53;;;;;;;34.33;23.40;;;;;;;;;;5098416;28;20032;-65
2022/03/18 00:20:19;;;;;;;31.17;22.45;;;;;;;;;;5107655;28;20027;-66
2022/03/18 00:22:44;;;;;;;32.92;22.90;;;;;;;;;;5096093;28;20024;-66
2022/03/18 00:25:11;;;;;;;30.83;23.00;;;;;;;;;;5099377;28;20068;-66
2022/03/18 00:27:38;;;;;;;31.55;22.77;;;;;;;;;;5107432;28;20024;-67
2022/03/18 00:30:04;;;;;;;31.55;22.90;;;;;;;;;;5108932;28;20054;-64
2022/03/18 00:32:29;;;;;;;28.80;20.83;;;;;;;;;;5108956;28;20487;-66
2022/03/18 00:34:54;;;;;;;31.95;22.23;;;;;;;;;;5107128;28;20016;-65
2022/03/18 00:37:20;;;;;;;29.58;21.05;;;;;;;;;;5105387;28;20117;-66
2022/03/18 00:39:45;;;;;;;27.20;19.80;;;;;;;;;;5107559;28;20039;-65
2022/03/18 00:42:11;;;;;;;25.42;19.17;;;;;;;;;;5094040;28;20111;-65
2022/03/18 00:44:36;;;;;;;24.55;17.92;;;;;;;;;;5102690;28;20032;-65
2022/03/18 00:47:01;;;;;;;21.67;16.88;;;;;;;;;;5111897;28;20077;-65
2022/03/18 00:52:14;;;;;;;20.73;15.00;;;;;;;;;;5109214;28;20136;-65
2022/03/18 00:54:39;;;;;;;21.92;15.68;;;;;;;;;;5111637;28;20019;-64
2022/03/18 00:57:05;;;;;;;22.33;15.07;;;;;;;;;;5111257;28;20056;-65
2022/03/18 00:59:31;;;;;;;22.45;14.77;;;;;;;;;;5109324;28;20020;-65
2022/03/18 01:01:57;;;;;;;19.30;13.60;;;;;;;;;;5105852;28;20061;-65
2022/03/18 01:04:23;;;;;;;20.40;14.30;;;;;;;;;;5108485;28;20063;-66
2022/03/18 01:06:55;;;;;;;24.27;14.13;;;;;;;;;;5114282;28;20455;-66
2022/03/18 01:09:21;;;;;;;20.85;14.73;;;;;;;;;;5114875;28;20027;-66
2022/03/18 01:11:47;;;;;;;18.83;12.50;;;;;;;;;;5111187;28;20027;-65
2022/03/18 01:14:12;;;;;;;18.27;13.18;;;;;;;;;;5113661;28;20026;-66
2022/03/18 01:16:37;;;;;;;20.25;12.27;;;;;;;;;;5113299;28;20020;-66
2022/03/18 01:19:02;;;;;;;19.23;11.63;;;;;;;;;;5110517;28;20114;-66
2022/03/18 01:21:27;;;;;;;16.65;11.35;;;;;;;;;;5095862;28;20471;-66
2022/03/18 01:23:53;;;;;;;17.48;11.60;;;;;;;;;;5099628;28;20617;-66
2022/03/18 01:26:18;;;;;;;19.42;11.77;;;;;;;;;;5110910;28;20508;-65
2022/03/18 01:28:43;;;;;;;17.77;10.98;;;;;;;;;;5100001;28;20023;-66
2022/03/18 01:31:08;;;;;;;16.95;10.90;;;;;;;;;;5104113;28;20488;-66
2022/03/18 01:33:35;;;;;;;17.05;10.40;;;;;;;;;;5105039;28;20016;-68
2022/03/18 01:36:01;;;;;;;15.32;10.50;;;;;;;;;;5098892;28;20028;-65
2022/03/18 01:38:26;;;;;;;18.67;10.73;;;;;;;;;;5108303;28;20552;-66
2022/03/18 01:40:51;;;;;;;14.65;10.30;;;;;;;;;;5115369;28;20031;-65
2022/03/18 01:43:16;;;;;;;15.45;9.43;;;;;;;;;;5112745;28;20495;-65
2022/03/18 01:45:42;;;;;;;15.20;9.80;;;;;;;;;;5103326;28;20429;-67
2022/03/18 01:48:07;;;;;;;13.88;10.30;;;;;;;;;;5103733;28;20483;-66
2022/03/18 01:50:32;;;;;;;17.83;10.55;;;;;;;;;;5104328;28;20051;-64
2022/03/18 01:52:58;;;;;;;16.38;10.38;;;;;;;;;;5108523;28;20028;-65
2022/03/18 01:55:24;;;;;;;17.60;10.52;;;;;;;;;;5097510;28;20020;-65
2022/03/18 01:57:49;;;;;;;17.95;9.80;;;;;;;;;;5107106;28;20048;-66
2022/03/18 02:00:15;;;;;;;17.92;9.77;;;;;;;;;;5106099;28;20052;-65
2022/03/18 02:02:41;;;;;;;15.15;9.45;;;;;;;;;;5098225;28;20451;-65
2022/03/18 02:05:06;;;;;;;19.17;10.00;;;;;;;;;;5104643;28;20398;-65
2022/03/18 02:07:32;;;;;;;19.73;10.90;;;;;;;;;;5106307;28;20046;-65
2022/03/18 02:09:57;;;;;;;16.77;10.32;;;;;;;;;;5097523;28;20518;-65
2022/03/18 02:12:22;;;;;;;18.27;10.02;;;;;;;;;;5112840;28;20080;-62
2022/03/18 02:14:48;;;;;;;16.15;10.55;;;;;;;;;;5100969;28;20035;-66
2022/03/18 02:17:16;;;;;;;19.08;11.13;;;;;;;;;;5108913;28;20046;-65
2022/03/18 02:19:42;;;;;;;20.10;10.55;;;;;;;;;;5097321;28;20020;-65
2022/03/18 02:22:10;;;;;;;17.23;10.48;;;;;;;;;;5097606;28;20039;-65
2022/03/18 02:24:37;;;;;;;22.40;10.73;;;;;;;;;;5099218;28;20024;-65
2022/03/18 02:27:03;;;;;;;16.27;9.80;;;;;;;;;;5106190;28;20031;-65
2022/03/18 02:29:28;;;;;;;20.25;11.18;;;;;;;;;;5108524;28;20028;-65
2022/03/18 02:31:53;;;;;;;17.80;10.85;;;;;;;;;;5112086;28;20020;-65
2022/03/18 02:34:18;;;;;;;17.25;10.98;;;;;;;;;;5103561;28;20380;-66
2022/03/18 02:36:44;;;;;;;18.85;10.30;;;;;;;;;;5113002;28;20476;-66
2022/03/18 02:39:09;;;;;;;19.65;10.75;;;;;;;;;;5101433;28;20031;-66
2022/03/18 02:41:34;;;;;;;18.60;10.23;;;;;;;;;;5108828;28;20023;-65
2022/03/18 02:44:00;;;;;;;17.83;10.77;;;;;;;;;;5104027;28;20028;-66
2022/03/18 02:46:25;;;;;;;19.23;11.55;;;;;;;;;;5111488;28;20030;-66
2022/03/18 02:48:51;;;;;;;17.80;10.88;;;;;;;;;;5107160;28;20377;-65
2022/03/18 02:51:16;;;;;;;18.15;10.52;;;;;;;;;;5093344;28;20028;-66
2022/03/18 02:53:41;;;;;;;17.30;11.43;;;;;;;;;;5093963;28;20035;-66
2022/03/18 02:56:07;;;;;;;16.27;10.95;;;;;;;;;;5103370;28;20047;-65
2022/03/18 02:58:35;;;;;;;17.20;11.00;;;;;;;;;;5096349;28;20032;-65
2022/03/18 03:01:00;;;;;;;21.35;11.15;;;;;;;;;;5109085;28;20024;-65
2022/03/18 03:03:25;;;;;;;21.35;12.25;;;;;;;;;;5110901;28;20368;-66
2022/03/18 03:08:34;;;;;;;19.85;12.00;;;;;;;;;;5111913;28;20078;-65
2022/03/18 03:10:59;;;;;;;18.67;11.93;;;;;;;;;;5111460;28;20457;-66
2022/03/18 03:13:24;;;;;;;20.45;11.35;;;;;;;;;;5110372;28;20061;-65
2022/03/18 03:15:50;;;;;;;19.33;12.00;;;;;;;;;;5111877;28;20023;-66
2022/03/18 03:18:15;;;;;;;25.60;12.98;;;;;;;;;;5112545;28;20433;-66
2022/03/18 03:20:41;;;;;;;18.45;11.45;;;;;;;;;;5110502;28;20031;-66
2022/03/18 03:23:06;;;;;;;19.65;11.65;;;;;;;;;;5094740;28;20027;-66
2022/03/18 03:25:31;;;;;;;17.92;12.02;;;;;;;;;;5106253;28;20104;-66
2022/03/18 03:27:56;;;;;;;23.02;11.38;;;;;;;;;;5101544;28;20020;-66
2022/03/18 03:30:22;;;;;;;19.38;11.43;;;;;;;;;;5101203;28;20056;-66
2022/03/18 03:32:48;;;;;;;19.67;11.35;;;;;;;;;;5096699;28;20016;-66
2022/03/18 03:35:15;;;;;;;16.08;10.90;;;;;;;;;;5112154;27;20491;-65
2022/03/18 03:37:41;;;;;;;20.98;11.88;;;;;;;;;;5107662;28;20472;-66
2022/03/18 03:40:06;;;;;;;19.38;11.27;;;;;;;;;;5099984;28;20030;-66
2022/03/18 03:42:31;;;;;;;19.27;10.43;;;;;;;;;;5111005;28;20138;-66
2022/03/18 03:44:56;;;;;;;22.33;11.20;;;;;;;;;;5112045;28;20050;-66
2022/03/18 03:47:22;;;;;;;18.77;10.00;;;;;;;;;;5112556;28;20063;-66
2022/03/18 03:49:47;;;;;;;17.30;10.45;;;;;;;;;;5110498;28;20038;-65
2022/03/18 03:52:12;;;;;;;17.88;9.95;;;;;;;;;;5102138;28;20058;-64
2022/03/18 03:54:38;;;;;;;18.58;10.90;;;;;;;;;;5101616;28;20270;-65
2022/03/18 03:57:03;;;;;;;23.95;11.05;;;;;;;;;;5108903;28;20047;-65
2022/03/18 03:59:29;;;;;;;18.02;10.45;;;;;;;;;;5095059;28;20048;-65
2022/03/18 04:01:54;;;;;;;18.20;10.10;;;;;;;;;;5096349;28;20361;-65
2022/03/18 04:04:19;;;;;;;20.63;10.93;;;;;;;;;;5109764;28;20027;-65
2022/03/18 04:06:44;;;;;;;20.85;10.63;;;;;;;;;;5110573;28;20035;-65
2022/03/18 04:09:09;;;;;;;19.00;10.48;;;;;;;;;;5096489;28;20032;-66
2022/03/18 04:11:35;;;;;;;18.98;10.85;;;;;;;;;;5092567;28;20023;-65
2022/03/18 04:14:00;;;;;;;17.65;10.40;;;;;;;;;;5109357;28;20015;-66
2022/03/18 04:16:25;;;;;;;20.98;9.52;;;;;;;;;;5095022;28;20270;-66
2022/03/18 04:18:50;;;;;;;20.17;9.82;;;;;;;;;;5095850;28;20047;-66
2022/03/18 04:21:15;;;;;;;19.42;9.32;;;;;;;;;;5095331;28;20369;-66
2022/03/18 04:23:41;;;;;;;16.00;8.70;;;;;;;;;;5093075;28;20043;-66
2022/03/18 04:26:06;;;;;;;18.90;8.55;;;;;;;;;;5102883;28;20035;-66
2022/03/18 04:28:31;;;;;;;17.63;9.52;;;;;;;;;;5099167;28;20036;-66
2022/03/18 04:30:57;;;;;;;19.02;9.13;;;;;;;;;;5095230;28;20077;-66
2022/03/18 04:33:22;;;;;;;17.00;8.32;;;;;;;;;;5108091;28;20455;-66
2022/03/18 04:35:47;;;;;;;19.38;9.95;;;;;;;;;;5112184;28;20024;-63
2022/03/18 04:38:12;;;;;;;16.58;8.50;;;;;;;;;;5109241;28;20531;-63
2022/03/18 04:40:37;;;;;;;17.48;8.50;;;;;;;;;;5111698;28;20471;-65
2022/03/18 04:43:03;;;;;;;19.27;8.80;;;;;;;;;;5109005;28;20020;-65
2022/03/18 04:45:28;;;;;;;17.55;8.38;;;;;;;;;;5096913;28;20373;-66
2022/03/18 04:47:54;;;;;;;18.45;10.02;;;;;;;;;;5092252;28;20052;-65
2022/03/18 04:50:20;;;;;;;16.40;8.00;;;;;;;;;;5102199;28;20038;-65
2022/03/18 04:52:45;;;;;;;24.75;8.27;;;;;;;;;;5111809;28;20020;-66
2022/03/18 04:55:11;;;;;;;15.93;8.38;;;;;;;;;;5097201;28;20027;-65
2022/03/18 04:57:36;;;;;;;16.17;7.93;;;;;;;;;;5104400;28;20047;-66
2022/03/18 05:00:03;;;;;;;16.38;7.78;;;;;;;;;;5103075;28;20077;-66
2022/03/18 05:02:29;;;;;;;16.48;7.97;;;;;;;;;;5098676;28;20046;-65
2022/03/18 05:04:54;;;;;;;14.32;6.70;;;;;;;;;;5104494;28;20131;-65
2022/03/18 05:07:19;;;;;;;15.27;6.93;;;;;;;;;;5111060;28;20023;-67
2022/03/18 05:09:45;;;;;;;21.00;7.35;;;;;;;;;;5103205;28;20069;-65
2022/03/18 05:12:11;;;;;;;15.13;6.82;;;;;;;;;;5111991;28;20019;-65
2022/03/18 05:14:38;;;;;;;15.35;7.10;;;;;;;;;;5095135;28;20085;-66
2022/03/18 05:17:03;;;;;;;15.98;6.35;;;;;;;;;;5107124;28;20444;-65
2022/03/18 05:19:29;;;;;;;18.48;7.03;;;;;;;;;;5097890;28;20119;-67
2022/03/18 05:21:55;;;;;;;16.33;7.55;;;;;;;;;;5108781;28;20502;-65
2022/03/18 05:24:20;;;;;;;16.52;7.45;;;;;;;;;;5102322;28;20035;-65
2022/03/18 05:26:45;;;;;;;21.02;7.00;;;;;;;;;;5106885;28;20031;-63
2022/03/18 05:29:10;;;;;;;16.30;6.90;;;;;;;;;;5101778;28;20400;-65
2022/03/18 05:31:36;;;;;;;12.80;6.60;;;;;;;;;;5092710;28;20060;-64
2022/03/18 05:34:02;;;;;;;17.08;6.80;;;;;;;;;;5097094;28;20016;-66
2022/03/18 05:36:27;;;;;;;17.15;7.55;;;;;;;;;;5093851;28;20047;-66
2022/03/18 05:38:52;;;;;;;15.68;6.68;;;;;;;;;;5102049;28;20058;-66
2022/03/18 05:41:17;;;;;;;16.58;6.20;;;;;;;;;;5095759;28;20031;-66
2022/03/18 05:43:43;;;;;;;15.02;6.28;;;;;;;;;;5107446;28;20035;-65
2022/03/18 05:46:09;;;;;;;19.23;5.85;;;;;;;;;;5097096;28;20028;-66
2022/03/18 05:48:34;;;;;;;14.50;5.72;;;;;;;;;;5109226;28;20618;-66
2022/03/18 05:51:02;;;;;;;19.13;5.75;;;;;;;;;;5096820;28;20027;-66
2022/03/18 05:53:28;;;;;;;11.90;5.50;;;;;;;;;;5095516;28;20035;-66
2022/03/18 05:58:37;;;;;;;19.38;6.95;;;;;;;;;;5107247;28;20181;-64
2022/03/18 06:01:02;;;;;;;13.13;5.68;;;;;;;;;;5104769;28;20551;-65
2022/03/18 06:03:28;;;;;;;18.83;5.82;;;;;;;;;;5103468;28;20039;-65
2022/03/18 06:05:53;;;;;;;15.52;4.97;;;;;;;;;;5114356;28;20027;-65
2022/03/18 06:13:46;;;;;;;17.63;4.95;;;;;;;;;;5110722;28;20547;-66
2022/03/18 06:16:11;;;;;;;18.10;5.30;;;;;;;;;;5096767;28;20024;-66
2022/03/18 06:18:36;;;;;;;15.70;5.32;;;;;;;;;;5110823;28;20490;-66
2022/03/18 06:21:05;;;;;;;16.98;4.78;;;;;;;;;;5105976;28;20482;-66
2022/03/18 06:23:30;;;;;;;14.93;5.13;;;;;;;;;;5110839;28;20027;-66
2022/03/18 06:25:56;;;;;;;14.85;5.20;;;;;;;;;;5100128;28;20020;-64
2022/03/18 06:28:21;;;;;;;21.67;5.47;;;;;;;;;;5103167;28;20168;-66
2022/03/18 06:30:47;;;;;;;14.88;5.20;;;;;;;;;;5102287;28;20535;-67
2022/03/18 06:33:12;;;;;;;20.05;5.72;;;;;;;;;;5108742;28;20016;-66
2022/03/18 06:35:37;;;;;;;16.20;5.45;;;;;;;;;;5108964;28;20475;-66
2022/03/18 06:38:02;;;;;;;16.10;6.75;;;;;;;;;;5106832;28;20468;-67
2022/03/18 06:40:28;;;;;;;18.70;5.43;;;;;;;;;;5111706;28;20016;-66
2022/03/18 06:42:53;;;;;;;22.20;5.72;;;;;;;;;;5104784;28;20011;-66
2022/03/18 06:45:18;;;;;;;19.67;6.25;;;;;;;;;;5109009;28;20028;-67
2022/03/18 06:47:43;;;;;;;15.85;4.68;;;;;;;;;;5105410;28;20012;-67
2022/03/18 06:50:09;;;;;;;14.38;5.55;;;;;;;;;;5099595;28;20039;-67
2022/03/18 06:52:34;;;;;;;10.02;5.22;;;;;;;;;;5104886;28;20032;-67
2022/03/18 06:55:00;;;;;;;16.10;7.18;;;;;;;;;;5109694;28;20036;-67
2022/03/18 06:57:25;;;;;;;11.73;4.38;;;;;;;;;;5103881;28;20040;-66
2022/03/18 06:59:50;;;;;;;12.50;4.13;;;;;;;;;;5109904;28;20077;-66
2022/03/18 07:02:15;;;;;;;14.20;4.68;;;;;;;;;;5111406;28;20114;-66
2022/03/18 07:04:41;;;;;;;15.20;3.97;;;;;;;;;;5109232;28;20534;-67
2022/03/18 07:07:06;;;;;;;11.05;5.13;;;;;;;;;;5112838;28;20031;-67
2022/03/18 07:09:31;;;;;;;13.43;4.57;;;;;;;;;;5105715;28;20490;-67
2022/03/18 07:11:56;;;;;;;18.45;4.97;;;;;;;;;;5100979;28;20288;-67
2022/03/18 07:14:22;;;;;;;14.57;4.70;;;;;;;;;;5104389;28;20024;-67
2022/03/18 07:19:32;;;;;;;12.85;4.90;;;;;;;;;;5103317;28;20070;-66
2022/03/18 07:21:57;;;;;;;16.42;5.75;;;;;;;;;;5106554;28;20051;-67
2022/03/18 07:24:22;;;;;;;18.08;5.70;;;;;;;;;;5101102;28;20051;-67
2022/03/18 07:26:48;;;;;;;19.67;4.97;;;;;;;;;;5098945;28;20024;-66
2022/03/18 07:29:14;;;;;;;15.07;5.20;;;;;;;;;;5096476;28;20023;-66
2022/03/18 07:31:39;;;;;;;17.23;6.10;;;;;;;;;;5102901;27;20048;-66
2022/03/18 07:34:04;;;;;;;13.38;4.95;;;;;;;;;;5102067;28;20598;-65
2022/03/18 07:36:29;;;;;;;12.48;5.03;;;;;;;;;;5100352;28;20073;-67
2022/03/18 07:38:54;;;;;;;23.08;5.82;;;;;;;;;;5103724;28;20027;-67
2022/03/18 07:41:20;;;;;;;20.85;6.38;;;;;;;;;;5102393;28;20016;-66
2022/03/18 07:43:45;;;;;;;18.95;5.53;;;;;;;;;;5103589;28;20067;-64
2022/03/18 07:46:10;;;;;;;18.65;6.28;;;;;;;;;;5095534;28;20032;-66
2022/03/18 07:48:39;;;;;;;21.50;6.47;;;;;;;;;;5103431;28;20383;-65
2022/03/18 07:51:05;;;;;;;22.23;6.10;;;;;;;;;;5101659;28;20036;-66
2022/03/18 07:53:30;;;;;;;20.45;6.32;;;;;;;;;;5101407;28;20365;-66
2022/03/18 07:55:56;;;;;;;23.08;6.82;;;;;;;;;;5092890;28;20040;-64
2022/03/18 07:58:21;;;;;;;18.95;6.60;;;;;;;;;;5100814;28;20032;-66
2022/03/18 08:00:46;;;;;;;24.33;6.65;;;;;;;;;;5098347;28;20051;-66
2022/03/18 08:03:11;;;;;;;19.30;7.45;;;;;;;;;;5098572;28;20023;-67
2022/03/18 08:05:36;;;;;;;19.95;7.10;;;;;;;;;;5111902;28;20019;-67
2022/03/18 08:08:02;;;;;;;22.88;7.22;;;;;;;;;;5100145;28;20024;-67
2022/03/18 08:10:29;;;;;;;26.25;8.30;;;;;;;;;;5104155;28;20016;-66
2022/03/18 08:12:54;;;;;;;24.75;7.45;;;;;;;;;;5100683;28;20089;-66
2022/03/18 08:15:20;;;;;;;26.00;9.25;;;;;;;;;;5091936;28;20032;-66
2022/03/18 08:17:46;;;;;;;22.85;8.73;;;;;;;;;;5096151;28;20024;-65
2022/03/18 08:20:12;;;;;;;19.92;9.40;;;;;;;;;;5093654;28;20027;-65
2022/03/18 08:22:38;;;;;;;17.83;8.45;;;;;;;;;;5100708;28;20433;-65
2022/03/18 08:25:04;;;;;;;20.58;8.52;;;;;;;;;;5094243;28;20137;-66
2022/03/18 08:27:29;;;;;;;22.75;8.38;;;;;;;;;;5099549;28;20108;-66
2022/03/18 08:29:59;;;;;;;28.25;8.00;;;;;;;;;;5097211;28;20042;-66
2022/03/18 08:32:25;;;;;;;21.45;8.57;;;;;;;;;;5094492;28;20098;-65
2022/03/18 08:34:50;;;;;;;18.08;7.35;;;;;;;;;;5109561;28;20476;-67
2022/03/18 08:37:55;;;;;;;21.60;7.80;;;;;;;;;;5109779;28;20304;-65
2022/03/18 08:40:00;;;;;;;16.80;7.10;;;;;;;;;;5107786;28;20028;-66
2022/03/18 08:42:26;;;;;;;16.55;7.22;;;;;;;;;;5102618;28;20041;-66
2022/03/18 08:44:51;;;;;;;17.10;7.35;;;;;;;;;;5104957;28;20225;-66
2022/03/18 08:47:16;;;;;;;19.05;7.00;;;;;;;;;;5111312;28;20036;-66
2022/03/18 08:49:41;;;;;;;23.90;8.23;;;;;;;;;;5110505;28;20081;-66
2022/03/18 08:52:06;;;;;;;20.25;7.32;;;;;;;;;;5105882;28;20031;-66
2022/03/18 08:54:32;;;;;;;16.13;7.00;;;;;;;;;;5107245;28;20047;-65
2022/03/18 08:56:57;;;;;;;22.48;7.65;;;;;;;;;;5092353;28;20040;-66
2022/03/18 08:59:23;;;;;;;20.98;7.57;;;;;;;;;;5110615;28;20036;-66
2022/03/18 09:01:48;;;;;;;27.27;8.63;;;;;;;;;;5103980;28;20115;-68
2022/03/18 09:04:14;;;;;;;20.40;7.50;;;;;;;;;;5101530;28;20462;-70
2022/03/18 09:06:39;;;;;;;21.85;6.88;;;;;;;;;;5090580;28;20119;-71
2022/03/18 09:09:05;;;;;;;18.25;7.97;;;;;;;;;;5097314;28;20131;-70
2022/03/18 09:11:30;;;;;;;20.80;6.22;;;;;;;;;;5107945;28;20111;-62
2022/03/18 09:13:55;;;;;;;24.70;7.13;;;;;;;;;;5112479;28;20361;-63
2022/03/18 09:16:20;;;;;;;15.30;6.60;;;;;;;;;;5110720;28;20043;-65
2022/03/18 09:18:45;;;;;;;22.58;7.45;;;;;;;;;;5113553;28;20091;-61
2022/03/18 09:21:11;;;;;;;20.00;7.55;;;;;;;;;;5106025;28;20361;-68
2022/03/18 09:23:36;;;;;;;16.73;5.90;;;;;;;;;;5106080;28;20027;-67
2022/03/18 09:26:01;;;;;;;15.68;5.53;;;;;;;;;;5100986;28;20031;-67
2022/03/18 09:28:28;;;;;;;18.77;6.28;;;;;;;;;;5112708;28;20118;-67
2022/03/18 09:30:54;;;;;;;16.88;6.53;;;;;;;;;;5112582;27;20106;-66
2022/03/18 09:33:19;;;;;;;24.35;6.93;;;;;;;;;;5100301;28;20161;-67
2022/03/18 09:35:44;;;;;;;19.50;6.93;;;;;;;;;;5107895;28;20038;-67
2022/03/18 09:38:09;;;;;;;19.88;7.50;;;;;;;;;;5103325;28;20028;-67
2022/03/18 09:40:35;;;;;;;17.40;6.18;;;;;;;;;;5107469;28;20034;-67
2022/03/18 09:43:01;;;;;;;20.85;6.45;;;;;;;;;;5104274;28;20028;-67
2022/03/18 09:45:30;;;;;;;18.52;6.80;;;;;;;;;;5114492;27;20391;-67
2022/03/18 09:48:01;;;;;;;18.75;5.80;;;;;;;;;;5114449;28;20023;-66
2022/03/18 09:50:26;;;;;;;19.63;6.32;;;;;;;;;;5106904;28;20442;-69
2022/03/18 09:52:52;;;;;;;20.60;6.38;;;;;;;;;;5094047;28;20024;-68
2022/03/18 09:55:17;;;;;;;18.67;6.72;;;;;;;;;;5091859;28;20084;-68
2022/03/18 09:57:43;;;;;;;17.15;5.50;;;;;;;;;;5106881;28;20084;-66
2022/03/18 10:00:08;;;;;;;19.75;5.80;;;;;;;;;;5104942;28;20043;-68
2022/03/18 10:02:34;;;;;;;13.77;5.90;;;;;;;;;;5114403;28;20043;-68
2022/03/18 10:05:00;;;;;;;14.45;5.53;;;;;;;;;;5111407;28;20104;-68
2022/03/18 10:07:26;;;;;;;19.70;5.60;;;;;;;;;;5113873;28;20042;-67
2022/03/18 10:10:05;;;;;;;22.05;6.65;;;;;;;;;;5105204;28;20016;-68
2022/03/18 10:12:35;;;;;;;17.48;6.18;;;;;;;;;;5097914;28;20047;-68
2022/03/18 10:15:08;;;;;;;17.25;5.68;;;;;;;;;;5107877;28;20026;-68
2022/03/18 10:17:40;;;;;;;20.23;5.85;;;;;;;;;;5104428;28;20024;-68
2022/03/18 10:20:05;;;;;;;16.40;6.03;;;;;;;;;;5103171;28;20032;-63
2022/03/18 10:22:31;;;;;;;16.27;6.07;;;;;;;;;;5103504;28;20016;-68
2022/03/18 10:24:56;;;;;;;15.43;5.72;;;;;;;;;;5095800;28;20028;-67
2022/03/18 10:27:21;;;;;;;21.42;6.75;;;;;;;;;;5098689;28;20011;-67
2022/03/18 10:29:52;;;;;;;18.15;5.63;;;;;;;;;;5103667;28;20165;-67
2022/03/18 10:32:18;;;;;;;14.38;6.57;;;;;;;;;;5102590;28;20042;-68
2022/03/18 10:37:51;;;;;;;16.58;5.57;;;;;;;;;;5111157;28;20039;-67
2022/03/18 10:40:17;;;;;;;19.20;7.32;;;;;;;;;;5112339;28;20084;-67
2022/03/18 10:42:55;;;;;;;19.65;7.68;;;;;;;;;;5102909;28;20388;-68
2022/03/18 10:45:20;;;;;;;15.68;7.22;;;;;;;;;;5113126;27;20020;-68
2022/03/18 10:47:46;;;;;;;20.02;8.85;;;;;;;;;;5110660;28;20563;-69
2022/03/18 10:50:11;;;;;;;14.55;8.60;;;;;;;;;;5110313;28;20020;-68
2022/03/18 10:52:37;;;;;;;16.50;8.02;;;;;;;;;;5109598;28;20024;-68
2022/03/18 10:55:18;;;;;;;17.98;9.10;;;;;;;;;;5102652;28;20043;-68
2022/03/18 10:57:49;;;;;;;19.30;8.32;;;;;;;;;;5109344;28;20051;-67
2022/03/18 11:00:14;;;;;;;21.25;9.63;;;;;;;;;;5112381;28;20020;-67
2022/03/18 11:02:42;;;;;;;19.02;8.82;;;;;;;;;;5098780;28;20024;-67
2022/03/18 11:05:07;;;;;;;22.20;10.05;;;;;;;;;;5109337;28;20031;-67
2022/03/18 11:07:41;;;;;;;23.88;10.00;;;;;;;;;;5111872;28;20024;-68
2022/03/18 11:12:53;;;;;;;19.75;8.90;;;;;;;;;;5113439;28;20524;-69
2022/03/18 11:15:18;;;;;;;17.67;8.98;;;;;;;;;;5112570;28;20097;-68
2022/03/18 11:17:44;;;;;;;14.98;8.45;;;;;;;;;;5110916;28;20024;-69
2022/03/18 11:20:10;;;;;;;21.98;8.57;;;;;;;;;;5105783;28;20502;-68
2022/03/18 11:22:37;;;;;;;18.10;10.00;;;;;;;;;;5092665;28;20035;-68
2022/03/18 11:25:03;;;;;;;19.80;10.93;;;;;;;;;;5109538;28;20035;-67
2022/03/18 11:27:28;;;;;;;16.40;10.93;;;;;;;;;;5112415;28;20459;-67
2022/03/18 11:30:12;;;;;;;19.63;11.18;;;;;;;;;;5106027;28;20026;-68
2022/03/18 11:32:38;;;;;;;18.20;9.57;;;;;;;;;;5107187;28;20011;-68
2022/03/18 11:35:04;;;;;;;21.42;10.60;;;;;;;;;;5112947;28;20024;-68
2022/03/18 11:37:29;;;;;;;21.25;10.82;;;;;;;;;;5112454;28;20019;-68
2022/03/18 11:40:13;;;;;;;22.02;11.20;;;;;;;;;;5094555;28;20099;-68
2022/03/18 11:42:38;;;;;;;21.48;11.85;;;;;;;;;;5096464;28;20024;-67
2022/03/18 11:45:04;;;;;;;19.77;11.75;;;;;;;;;;5112288;28;20497;-68
2022/03/18 11:47:29;;;;;;;18.90;9.95;;;;;;;;;;5112650;28;20019;-67
2022/03/18 11:49:55;;;;;;;18.17;10.90;;;;;;;;;;5094332;28;20486;-67
2022/03/18 11:52:20;;;;;;;19.17;11.00;;;;;;;;;;5110537;28;20497;-67
2022/03/18 11:54:52;;;;;;;25.42;10.57;;;;;;;;;;5110211;28;20085;-67
2022/03/18 11:57:31;;;;;;;16.48;11.55;;;;;;;;;;5110501;28;20039;-67
2022/03/18 12:00:00;;;;;;;22.60;12.43;;;;;;;;;;5100311;28;20055;-68
2022/03/18 12:02:38;;;;;;;26.95;12.75;;;;;;;;;;5104127;28;20015;-66
2022/03/18 12:05:04;;;;;;;20.50;13.10;;;;;;;;;;5106583;28;20059;-69
2022/03/18 12:07:33;;;;;;;19.27;13.38;;;;;;;;;;5099101;28;20115;-67
2022/03/18 12:10:05;;;;;;;21.75;14.82;;;;;;;;;;5095978;28;20024;-67
2022/03/18 12:12:31;;;;;;;19.58;13.95;;;;;;;;;;5108654;28;20022;-67
2022/03/18 12:14:57;;;;;;;21.88;14.23;;;;;;;;;;5104085;28;20020;-68
2022/03/18 12:17:23;;;;;;;23.13;15.35;;;;;;;;;;5101009;28;20024;-68
2022/03/18 12:19:53;;;;;;;25.20;16.50;;;;;;;;;;5100605;28;20039;-68
2022/03/18 12:22:20;;;;;;;24.00;17.73;;;;;;;;;;5104202;28;20020;-67
2022/03/18 12:24:49;;;;;;;30.58;17.85;;;;;;;;;;5103026;28;20133;-67
2022/03/18 12:27:17;;;;;;;25.83;17.90;;;;;;;;;;5109804;28;20030;-67
2022/03/18 12:29:43;;;;;;;24.10;18.05;;;;;;;;;;5106169;28;20081;-68
2022/03/18 12:32:13;;;;;;;27.75;19.90;;;;;;;;;;5103694;28;20061;-67
2022/03/18 12:34:47;;;;;;;27.52;19.40;;;;;;;;;;5095117;28;20023;-67
2022/03/18 12:37:17;;;;;;;28.70;20.52;;;;;;;;;;5098508;28;20380;-68
2022/03/18 12:39:42;;;;;;;26.83;20.20;;;;;;;;;;5104389;28;20024;-67
2022/03/18 12:42:12;;;;;;;27.90;21.27;;;;;;;;;;5101072;28;20023;-65
2022/03/18 12:44:38;;;;;;;27.98;22.67;;;;;;;;;;5105280;28;20623;-68
2022/03/18 12:47:05;;;;;;;27.90;21.00;;;;;;;;;;5111428;28;20085;-69
2022/03/18 12:49:31;;;;;;;25.73;22.05;;;;;;;;;;5110857;28;20028;-68
2022/03/18 12:51:57;;;;;;;25.95;20.30;;;;;;;;;;5097393;28;20034;-68
2022/03/18 12:54:22;;;;;;;27.25;21.27;;;;;;;;;;5105503;28;20015;-68
2022/03/18 12:56:47;;;;;;;26.08;20.35;;;;;;;;;;5110724;28;20048;-68
2022/03/18 12:59:14;;;;;;;29.20;21.05;;;;;;;;;;5114380;28;20084;-68
2022/03/18 13:01:49;;;;;;;26.70;20.75;;;;;;;;;;5114825;28;20061;-69
2022/03/18 13:04:17;;;;;;;26.00;20.35;;;;;;;;;;5110313;28;20528;-67
2022/03/18 13:06:42;;;;;;;25.65;19.50;;;;;;;;;;5112733;28;20054;-69
2022/03/18 13:09:08;;;;;;;28.48;21.80;;;;;;;;;;5115399;28;20464;-69
2022/03/18 13:11:35;;;;;;;30.52;21.00;;;;;;;;;;5113504;28;20568;-69
2022/03/18 13:14:01;;;;;;;25.35;19.65;;;;;;;;;;5112687;28;20012;-69
2022/03/18 13:16:34;;;;;;;26.02;21.00;;;;;;;;;;5109763;28;20076;-68
2022/03/18 13:18:59;;;;;;;29.63;21.77;;;;;;;;;;5114574;27;20024;-69
2022/03/18 13:21:25;;;;;;;28.77;22.20;;;;;;;;;;5113797;28;20031;-69
2022/03/18 13:23:50;;;;;;;26.42;19.95;;;;;;;;;;5113360;28;20035;-69
2022/03/18 13:26:16;;;;;;;28.70;19.67;;;;;;;;;;5109007;28;20020;-69
2022/03/18 13:28:42;;;;;;;25.67;19.42;;;;;;;;;;5112083;28;20383;-68
2022/03/18 13:33:52;;;;;;;26.17;20.38;;;;;;;;;;5108098;28;20116;-70
2022/03/18 13:36:35;;;;;;;28.08;22.38;;;;;;;;;;5114023;28;20035;-65
2022/03/18 13:39:02;;;;;;;28.17;21.42;;;;;;;;;;5106185;28;20028;-68
2022/03/18 13:41:41;;;;;;;28.35;22.52;;;;;;;;;;5095324;28;20031;-67
2022/03/18 13:44:06;;;;;;;26.55;21.10;;;;;;;;;;5107190;28;20024;-68
2022/03/18 13:46:32;;;;;;;28.38;22.00;;;;;;;;;;5100695;28;20023;-68
2022/03/18 13:49:11;;;;;;;27.40;20.98;;;;;;;;;;5101205;28;20116;-69
2022/03/18 13:51:37;;;;;;;29.20;20.95;;;;;;;;;;5106612;28;20093;-68
2022/03/18 13:54:05;;;;;;;27.77;21.27;;;;;;;;;;5109873;28;20008;-68
2022/03/18 13:56:30;;;;;;;25.58;20.80;;;;;;;;;;5101787;28;20036;-68
2022/03/18 13:58:56;;;;;;;29.45;21.48;;;;;;;;;;5093609;28;20020;-68
2022/03/18 14:01:21;;;;;;;30.52;22.08;;;;;;;;;;5106212;28;20128;-68
2022/03/18 14:03:52;;;;;;;27.65;21.90;;;;;;;;;;5113706;28;20039;-69
2022/03/18 14:06:17;;;;;;;30.83;22.35;;;;;;;;;;5111831;28;20518;-66
2022/03/18 14:08:43;;;;;;;32.08;21.52;;;;;;;;;;5103888;28;20025;-67
2022/03/18 14:14:18;;;;;;;27.67;21.90;;;;;;;;;;5113319;28;20026;-68
2022/03/18 14:17:03;;;;;;;27.85;21.02;;;;;;;;;;5113279;28;20019;-67
2022/03/18 14:19:47;;;;;;;31.45;21.27;;;;;;;;;;5100624;28;20032;-68
2022/03/18 14:22:32;;;;;;;29.02;21.42;;;;;;;;;;5098327;28;20031;-69
2022/03/18 14:24:57;;;;;;;29.23;23.65;;;;;;;;;;5109589;28;20019;-68
2022/03/18 14:27:22;;;;;;;28.60;22.73;;;;;;;;;;5111839;28;20031;-68
2022/03/18 14:29:48;;;;;;;26.33;22.13;;;;;;;;;;5103714;28;20744;-70
2022/03/18 14:32:13;;;;;;;29.35;22.98;;;;;;;;;;5104579;28;20034;-69
2022/03/18 14:34:38;;;;;;;29.00;22.73;;;;;;;;;;5105084;28;20016;-67
2022/03/18 14:37:03;;;;;;;29.92;23.20;;;;;;;;;;5113421;28;20027;-69
2022/03/18 14:39:29;;;;;;;31.67;22.98;;;;;;;;;;5103576;28;20039;-69
2022/03/18 14:41:54;;;;;;;30.92;21.90;;;;;;;;;;5108019;28;20027;-69
2022/03/18 14:44:19;;;;;;;28.25;23.02;;;;;;;;;;5105919;28;20035;-68
2022/03/18 14:46:44;;;;;;;28.02;21.75;;;;;;;;;;5095626;28;20055;-69